Hutto, Texas
Current Conditions -  °F | °C
As of 2:15 PM on Wednesday 26 Nov 2014 (Local Time) from KEDC Reporting Station
Clear Clear  
Wind Chill: 73°   Ceiling: Unl
Heat Index: 73°   Visibility: 10mi
Dew Point: 30°   Wind: 9mph
Humidity: 20%   Direction: 260°W
Pressure: 30.16"   Gusts: NA
Location:  30.54°N, 97.55°W
Report Text: KEDC 262015Z AUTO 26008KT 10SM CLR 23/M01 A3016 RMK AO2
Loading
Personal Weather Stations






























Interactive Weather Map New forecast layout! Learn more

10-Day Weather Forecast

Advertisements
Track Severe Weather on mobile